createdAt,value
2023-05-14T00:01:12.756Z,76.17
2023-05-14T00:03:42.048Z,76.32
2023-05-14T00:06:19.652Z,76.33
2023-05-14T00:08:50.639Z,76.31
2023-05-14T00:11:18.761Z,76.41
2023-05-14T00:13:47.446Z,76.56
2023-05-14T00:16:16.111Z,76.68
2023-05-14T00:18:44.372Z,76.42
2023-05-14T00:21:13.196Z,76.01
2023-05-14T00:23:48.950Z,76.46
2023-05-14T00:26:17.054Z,76.60
2023-05-14T00:28:45.402Z,76.83
2023-05-14T00:31:14.749Z,76.75
2023-05-14T00:33:43.165Z,76.77
2023-05-14T00:36:14.431Z,76.93
2023-05-14T00:38:42.667Z,76.89
2023-05-14T00:41:10.877Z,76.89
2023-05-14T00:43:39.079Z,77.03
2023-05-14T00:46:09.950Z,77.04
2023-05-14T00:48:38.636Z,76.73
2023-05-14T00:51:19.145Z,76.91
2023-05-14T00:53:55.510Z,77.12
2023-05-14T00:56:47.333Z,77.53
2023-05-14T00:59:17.702Z,77.68
2023-05-14T01:01:45.782Z,77.86
2023-05-14T01:04:35.247Z,77.87
2023-05-14T01:07:21.537Z,77.85
2023-05-14T01:10:17.614Z,78.08
2023-05-14T01:13:18.558Z,78.18
2023-05-14T01:15:58.914Z,78.28
2023-05-14T01:18:38.533Z,78.55
2023-05-14T01:21:41.069Z,78.66
2023-05-14T01:24:09.852Z,78.58
2023-05-14T01:26:38.548Z,78.58
2023-05-14T01:29:15.861Z,78.62
2023-05-14T01:31:47.497Z,78.75
2023-05-14T01:34:18.561Z,78.75
2023-05-14T01:36:48.282Z,78.66
2023-05-14T01:39:17.744Z,78.69
2023-05-14T01:41:49.132Z,78.57
2023-05-14T01:44:20.737Z,78.50
2023-05-14T01:46:56.384Z,78.47
2023-05-14T01:49:24.807Z,78.33
2023-05-14T01:52:10.351Z,78.50
2023-05-14T01:54:39.763Z,78.62
2023-05-14T01:57:08.035Z,78.57
2023-05-14T01:59:36.793Z,78.66
2023-05-14T02:02:05.092Z,78.91
2023-05-14T02:04:33.583Z,78.51
2023-05-14T02:07:01.758Z,77.95
2023-05-14T02:09:30.772Z,78.36
2023-05-14T02:11:59.954Z,78.79
2023-05-14T02:14:28.120Z,79.03
2023-05-14T02:16:56.838Z,78.96
2023-05-14T02:19:24.975Z,78.92
2023-05-14T02:21:53.462Z,78.63
2023-05-14T02:24:21.845Z,78.92
2023-05-14T02:26:49.868Z,78.08
2023-05-14T02:29:17.829Z,78.43
2023-05-14T02:31:45.963Z,78.79
2023-05-14T02:34:14.093Z,79.14
2023-05-14T02:36:44.795Z,79.17
2023-05-14T02:39:12.835Z,79.23
2023-05-14T02:41:43.586Z,79.34
2023-05-14T02:44:11.844Z,79.34
2023-05-14T02:46:40.296Z,79.30
2023-05-14T02:49:08.913Z,79.28
2023-05-14T02:51:36.996Z,79.28
2023-05-14T02:54:05.772Z,79.81
2023-05-14T02:56:34.086Z,80.12
2023-05-14T02:59:05.001Z,79.61
2023-05-14T03:01:33.575Z,79.70
2023-05-14T03:04:01.956Z,80.06
2023-05-14T03:06:30.076Z,79.93
2023-05-14T03:08:58.284Z,79.86
2023-05-14T03:11:26.383Z,79.84
2023-05-14T03:13:54.553Z,80.50
2023-05-14T03:16:22.995Z,80.30
2023-05-14T03:18:51.437Z,79.98
2023-05-14T03:21:19.699Z,80.01
2023-05-14T03:23:50.728Z,80.42
2023-05-14T03:26:19.670Z,80.44
2023-05-14T03:28:48.104Z,80.54
2023-05-14T03:31:16.532Z,80.63
2023-05-14T03:33:45.475Z,80.45
2023-05-14T03:36:13.850Z,80.57
2023-05-14T03:38:42.376Z,80.73
2023-05-14T03:41:10.344Z,80.97
2023-05-14T03:43:43.717Z,81.09
2023-05-14T03:46:12.189Z,81.32
2023-05-14T03:48:42.780Z,81.43
2023-05-14T03:51:11.307Z,81.58
2023-05-14T03:53:39.367Z,81.65
2023-05-14T03:56:08.249Z,81.62
2023-05-14T03:58:37.219Z,81.62
2023-05-14T04:01:05.841Z,81.63
2023-05-14T04:03:34.370Z,81.68
2023-05-14T04:06:02.532Z,81.66
2023-05-14T04:08:31.185Z,81.69
2023-05-14T04:10:59.769Z,81.63
2023-05-14T04:13:28.150Z,81.55
2023-05-14T04:15:56.509Z,81.56
2023-05-14T04:18:25.867Z,81.59
2023-05-14T04:20:56.968Z,81.55
2023-05-14T04:23:25.268Z,81.53
2023-05-14T04:25:53.175Z,81.19
2023-05-14T04:28:21.304Z,80.70
2023-05-14T04:30:49.920Z,80.68
2023-05-14T04:33:18.256Z,80.95
2023-05-14T04:35:46.834Z,80.98
2023-05-14T04:38:15.933Z,80.57
2023-05-14T04:40:44.101Z,80.32
2023-05-14T04:43:36.234Z,79.82
2023-05-14T04:46:04.451Z,78.97
2023-05-14T04:48:33.005Z,78.31
2023-05-14T04:51:06.366Z,75.29
2023-05-14T04:53:35.494Z,71.52
2023-05-14T04:56:16.976Z,68.09
2023-05-14T04:58:45.209Z,64.12
2023-05-14T05:01:13.792Z,62.09
2023-05-14T05:03:52.876Z,59.51
2023-05-14T05:06:21.384Z,53.58
2023-05-14T05:08:49.629Z,49.14
2023-05-14T05:11:17.849Z,51.09
2023-05-14T05:14:06.457Z,49.84
2023-05-14T05:16:34.896Z,46.41
2023-05-14T05:19:03.425Z,47.77
2023-05-14T05:21:34.025Z,45.83
2023-05-14T05:24:13.721Z,46.51
2023-05-14T05:26:41.891Z,46.52
2023-05-14T05:29:10.346Z,45.67
2023-05-14T05:31:39.081Z,44.48
2023-05-14T05:34:07.469Z,43.14
2023-05-14T05:36:35.923Z,41.87
2023-05-14T05:39:03.965Z,38.38
2023-05-14T05:41:32.034Z,36.86
2023-05-14T05:44:00.141Z,36.03
2023-05-14T05:46:28.134Z,36.88
2023-05-14T05:48:56.613Z,38.66
2023-05-14T05:51:24.840Z,39.79
2023-05-14T05:53:52.906Z,39.15
2023-05-14T05:56:22.216Z,40.77
2023-05-14T05:58:50.257Z,41.80
2023-05-14T06:01:18.555Z,42.55
2023-05-14T06:03:48.588Z,43.24
2023-05-14T06:06:17.009Z,42.88
2023-05-14T06:08:45.213Z,42.55
2023-05-14T06:11:13.320Z,41.21
2023-05-14T06:13:41.548Z,40.11
2023-05-14T06:16:10.018Z,40.12
2023-05-14T06:18:38.173Z,41.21
2023-05-14T06:21:06.501Z,41.54
2023-05-14T06:23:34.729Z,41.68
2023-05-14T06:26:03.156Z,41.07
2023-05-14T06:28:31.246Z,41.61
2023-05-14T06:30:59.516Z,42.04
2023-05-14T06:33:31.512Z,42.02
2023-05-14T06:36:06.965Z,43.18
2023-05-14T06:38:35.096Z,43.06
2023-05-14T06:41:04.007Z,42.77
2023-05-14T06:43:35.135Z,42.82
2023-05-14T06:46:03.717Z,42.71
2023-05-14T06:48:31.814Z,42.13
2023-05-14T06:50:59.860Z,41.52
2023-05-14T06:53:27.934Z,42.01
2023-05-14T06:55:56.487Z,42.13
2023-05-14T06:58:24.660Z,42.28
2023-05-14T07:00:52.671Z,42.24
2023-05-14T07:03:22.058Z,42.19
2023-05-14T07:05:50.341Z,42.38
2023-05-14T07:08:21.492Z,42.87
2023-05-14T07:10:49.530Z,42.97
2023-05-14T07:13:17.721Z,42.88
2023-05-14T07:15:45.915Z,42.16
2023-05-14T07:18:17.162Z,42.01
2023-05-14T07:20:45.663Z,42.04
2023-05-14T07:23:13.847Z,41.75
2023-05-14T07:25:41.790Z,41.52
2023-05-14T07:28:09.895Z,41.34
2023-05-14T07:30:38.141Z,40.89
2023-05-14T07:33:06.528Z,41.05
2023-05-14T07:35:34.996Z,41.08
2023-05-14T07:38:06.241Z,41.34
2023-05-14T07:40:34.431Z,40.12
2023-05-14T07:43:02.515Z,38.85
2023-05-14T07:45:30.863Z,38.59
2023-05-14T07:47:59.393Z,39.51
2023-05-14T07:50:27.997Z,39.45
2023-05-14T07:52:56.405Z,38.97
2023-05-14T07:55:24.448Z,39.09
2023-05-14T07:57:52.663Z,38.77
2023-05-14T08:00:20.942Z,38.76
2023-05-14T08:02:49.526Z,37.78
2023-05-14T08:05:18.373Z,37.95
2023-05-14T08:07:46.590Z,38.00
2023-05-14T08:10:17.829Z,38.31
2023-05-14T08:12:49.323Z,38.49
2023-05-14T08:15:24.551Z,37.45
2023-05-14T08:17:54.920Z,37.92
2023-05-14T08:20:26.145Z,38.01
2023-05-14T08:22:54.325Z,38.35
2023-05-14T08:25:23.507Z,38.52
2023-05-14T08:27:51.582Z,38.23
2023-05-14T08:30:19.836Z,38.38
2023-05-14T08:32:48.590Z,38.47
2023-05-14T08:35:17.962Z,37.84
2023-05-14T08:37:46.536Z,37.90
2023-05-14T08:40:14.618Z,38.04
2023-05-14T08:42:45.221Z,38.22
2023-05-14T08:45:21.393Z,37.60
2023-05-14T08:47:51.357Z,38.08
2023-05-14T08:50:23.776Z,38.25
2023-05-14T08:52:53.484Z,38.47
2023-05-14T08:55:27.517Z,38.40
2023-05-14T08:57:56.321Z,37.46
2023-05-14T09:00:27.839Z,36.82
2023-05-14T09:03:00.858Z,36.40
2023-05-14T09:05:38.425Z,36.46
2023-05-14T09:08:09.472Z,36.67
2023-05-14T09:10:37.748Z,36.89
2023-05-14T09:13:05.883Z,37.58
2023-05-14T09:15:41.769Z,37.52
2023-05-14T09:18:16.086Z,37.26
2023-05-14T09:20:44.314Z,37.58
2023-05-14T09:23:12.343Z,37.99
2023-05-14T09:25:40.408Z,38.46
2023-05-14T09:28:11.425Z,37.96
2023-05-14T09:30:39.530Z,37.95
2023-05-14T09:33:10.688Z,37.37
2023-05-14T09:35:41.487Z,37.31
2023-05-14T09:38:09.608Z,36.95
2023-05-14T09:40:38.254Z,37.03
2023-05-14T09:43:06.333Z,36.54
2023-05-14T09:45:35.626Z,36.82
2023-05-14T09:48:03.861Z,36.92
2023-05-14T09:50:32.200Z,37.37
2023-05-14T09:53:00.354Z,37.19
2023-05-14T09:55:29.342Z,36.73
2023-05-14T09:57:57.516Z,37.00
2023-05-14T10:00:25.788Z,37.21
2023-05-14T10:02:58.410Z,36.89
2023-05-14T10:05:28.068Z,37.28
2023-05-14T10:07:59.243Z,37.11
2023-05-14T10:10:30.398Z,36.37
2023-05-14T10:13:05.051Z,36.19
2023-05-14T10:15:55.041Z,34.63
2023-05-14T10:18:24.591Z,34.49
2023-05-14T10:21:05.879Z,35.27
2023-05-14T10:23:37.775Z,35.19
2023-05-14T10:26:06.728Z,35.18
2023-05-14T10:28:35.794Z,35.46
2023-05-14T10:31:03.866Z,35.37
2023-05-14T10:33:47.465Z,34.87
2023-05-14T10:36:15.613Z,35.59
2023-05-14T10:38:44.117Z,35.76
2023-05-14T10:41:18.181Z,35.53
2023-05-14T10:43:46.996Z,36.56
2023-05-14T10:46:15.246Z,35.81
2023-05-14T10:48:44.456Z,35.83
2023-05-14T10:51:12.690Z,35.78
2023-05-14T10:53:43.091Z,35.81
2023-05-14T10:56:13.845Z,35.91
2023-05-14T10:58:45.939Z,35.70
2023-05-14T11:01:14.373Z,36.03
2023-05-14T11:03:47.024Z,36.20
2023-05-14T11:06:16.377Z,36.03
2023-05-14T11:08:44.775Z,36.26
2023-05-14T11:11:13.099Z,36.50
2023-05-14T11:13:41.789Z,36.61
2023-05-14T11:18:41.951Z,36.44
2023-05-14T11:21:10.528Z,36.97
2023-05-14T11:23:39.097Z,37.12
2023-05-14T11:26:07.401Z,36.72
2023-05-14T11:28:36.468Z,37.20
2023-05-14T11:31:05.700Z,37.36
2023-05-14T11:33:34.037Z,36.98
2023-05-14T11:36:04.517Z,37.40
2023-05-14T11:38:32.515Z,37.73
2023-05-14T11:41:00.918Z,37.89
2023-05-14T11:43:29.525Z,38.04
2023-05-14T11:45:57.678Z,37.95
2023-05-14T11:48:25.799Z,37.49
2023-05-14T11:50:53.821Z,37.50
2023-05-14T11:53:26.556Z,37.02
2023-05-14T11:55:55.493Z,37.17
2023-05-14T11:58:24.201Z,37.30
2023-05-14T12:00:53.733Z,37.29
2023-05-14T12:03:26.142Z,37.51
2023-05-14T12:05:59.564Z,37.54
2023-05-14T12:08:30.030Z,37.96
2023-05-14T12:11:01.881Z,38.04
2023-05-14T12:13:31.544Z,37.92
2023-05-14T12:16:02.593Z,38.19
2023-05-14T12:18:41.465Z,38.97
2023-05-14T12:21:17.390Z,39.37
2023-05-14T12:23:45.447Z,39.93
2023-05-14T12:26:13.465Z,40.21
2023-05-14T12:28:47.651Z,40.45
2023-05-14T12:31:16.244Z,41.06
2023-05-14T12:33:44.250Z,41.30
2023-05-14T12:36:22.120Z,41.10
2023-05-14T12:38:51.488Z,41.24
2023-05-14T12:41:19.802Z,41.00
2023-05-14T12:43:49.598Z,40.94
2023-05-14T12:46:18.062Z,42.03
2023-05-14T12:48:46.472Z,42.13
2023-05-14T12:51:14.928Z,41.61
2023-05-14T12:53:43.204Z,41.93
2023-05-14T12:56:12.197Z,42.32
2023-05-14T12:58:42.896Z,41.75
2023-05-14T13:01:11.027Z,42.31
2023-05-14T13:03:41.555Z,43.16
2023-05-14T13:06:32.859Z,44.08
2023-05-14T13:09:02.457Z,44.92
2023-05-14T13:11:32.124Z,45.83
2023-05-14T13:14:02.675Z,47.14
2023-05-14T13:16:31.418Z,48.27
2023-05-14T13:18:59.833Z,48.37
2023-05-14T13:21:28.146Z,49.44
2023-05-14T13:23:56.720Z,50.79
2023-05-14T13:26:32.377Z,51.11
2023-05-14T13:29:00.555Z,51.40
2023-05-14T13:31:28.812Z,52.81
2023-05-14T13:33:58.437Z,53.55
2023-05-14T13:36:48.132Z,53.30
2023-05-14T13:39:16.503Z,53.73
2023-05-14T13:41:45.588Z,54.72
2023-05-14T13:44:13.866Z,55.50
2023-05-14T13:46:42.235Z,54.94
2023-05-14T13:49:13.109Z,55.19
2023-05-14T13:51:41.167Z,54.51
2023-05-14T13:54:21.320Z,54.87
2023-05-14T13:56:55.424Z,54.71
2023-05-14T13:59:24.089Z,54.51
2023-05-14T14:01:52.354Z,54.46
2023-05-14T14:04:20.969Z,54.57
2023-05-14T14:06:49.250Z,53.87
2023-05-14T14:09:17.314Z,53.18
2023-05-14T14:11:45.624Z,52.73
2023-05-14T14:14:14.074Z,52.13
2023-05-14T14:16:42.133Z,52.21
2023-05-14T14:19:11.403Z,52.56
2023-05-14T14:21:42.836Z,51.51
2023-05-14T14:24:13.585Z,51.48
2023-05-14T14:26:41.597Z,52.10
2023-05-14T14:29:09.544Z,52.51
2023-05-14T14:31:37.579Z,52.22
2023-05-14T14:34:05.666Z,52.30
2023-05-14T14:36:33.683Z,52.73
2023-05-14T14:39:01.856Z,52.24
2023-05-14T14:41:30.322Z,52.14
2023-05-14T14:43:58.534Z,51.91
2023-05-14T14:46:27.194Z,51.26
2023-05-14T14:48:55.600Z,50.79
2023-05-14T14:51:23.619Z,50.54
2023-05-14T14:53:51.629Z,50.92
2023-05-14T14:56:19.802Z,50.84
2023-05-14T14:58:47.856Z,50.56
2023-05-14T15:01:17.415Z,50.64
2023-05-14T15:03:48.413Z,50.67
2023-05-14T15:06:16.594Z,50.70
2023-05-14T15:08:44.562Z,50.76
2023-05-14T15:11:12.683Z,50.55
2023-05-14T15:13:42.028Z,50.72
2023-05-14T15:16:10.087Z,50.74
2023-05-14T15:18:38.295Z,51.08
2023-05-14T15:21:06.389Z,50.85
2023-05-14T15:23:34.570Z,50.74
2023-05-14T15:26:04.455Z,50.79
2023-05-14T15:28:32.558Z,50.54
2023-05-14T15:31:02.642Z,50.42
2023-05-14T15:33:30.845Z,50.10
2023-05-14T15:35:58.992Z,50.12
2023-05-14T15:38:30.514Z,50.31
2023-05-14T15:40:58.553Z,50.31
2023-05-14T15:43:26.672Z,50.41
2023-05-14T15:45:54.664Z,50.11
2023-05-14T15:48:22.702Z,50.15
2023-05-14T15:50:51.645Z,49.80
2023-05-14T15:53:20.826Z,49.61
2023-05-14T15:55:49.322Z,49.68
2023-05-14T15:58:17.780Z,49.60
2023-05-14T16:00:48.479Z,49.55
2023-05-14T16:03:17.526Z,49.38
2023-05-14T16:05:45.991Z,49.74
2023-05-14T16:08:14.206Z,49.48
2023-05-14T16:10:42.100Z,49.49
2023-05-14T16:13:10.176Z,49.37
2023-05-14T16:15:40.052Z,49.58
2023-05-14T16:18:08.382Z,49.38
2023-05-14T16:20:36.450Z,49.52
2023-05-14T16:23:04.528Z,49.49
2023-05-14T16:25:32.572Z,49.35
2023-05-14T16:28:00.868Z,49.18
2023-05-14T16:30:28.793Z,49.12
2023-05-14T16:32:57.234Z,49.05
2023-05-14T16:35:25.391Z,49.24
2023-05-14T16:37:54.505Z,49.55
2023-05-14T16:40:23.790Z,49.62
2023-05-14T16:42:54.714Z,49.66
2023-05-14T16:45:26.138Z,50.00
2023-05-14T16:47:54.525Z,49.81
2023-05-14T16:50:22.635Z,49.73
2023-05-14T16:52:50.842Z,49.92
2023-05-14T16:55:26.046Z,50.20
2023-05-14T16:57:54.207Z,50.38
2023-05-14T17:00:22.551Z,50.80
2023-05-14T17:02:57.985Z,51.32
2023-05-14T17:05:26.463Z,51.53
2023-05-14T17:07:54.655Z,51.99
2023-05-14T17:10:23.985Z,51.85
2023-05-14T17:12:54.988Z,51.62
2023-05-14T17:15:42.500Z,51.66
2023-05-14T17:18:12.062Z,52.02
2023-05-14T17:20:49.249Z,51.87
2023-05-14T17:23:19.254Z,51.45
2023-05-14T17:25:47.378Z,51.11
2023-05-14T17:28:16.014Z,51.00
2023-05-14T17:30:44.102Z,50.94
2023-05-14T17:33:12.395Z,50.89
2023-05-14T17:35:51.295Z,50.67
2023-05-14T17:38:22.038Z,50.60
2023-05-14T17:40:50.505Z,50.65
2023-05-14T17:43:19.094Z,50.46
2023-05-14T17:48:22.274Z,50.20
2023-05-14T17:50:53.452Z,50.49
2023-05-14T17:53:21.935Z,50.41
2023-05-14T17:55:50.428Z,50.33
2023-05-14T17:58:18.871Z,50.28
2023-05-14T18:00:47.010Z,50.17
2023-05-14T18:03:15.255Z,50.03
2023-05-14T18:05:43.389Z,50.01
2023-05-14T18:08:12.034Z,49.79
2023-05-14T18:10:40.138Z,49.97
2023-05-14T18:13:08.488Z,49.82
2023-05-14T18:15:37.015Z,49.61
2023-05-14T18:18:05.688Z,49.61
2023-05-14T18:20:35.597Z,49.66
2023-05-14T18:23:03.766Z,49.69
2023-05-14T18:25:31.928Z,49.70
2023-05-14T18:28:00.099Z,50.01
2023-05-14T18:30:28.145Z,50.30
2023-05-14T18:32:56.226Z,50.40
2023-05-14T18:35:24.629Z,50.29
2023-05-14T18:37:53.490Z,50.13
2023-05-14T18:40:21.531Z,50.09
2023-05-14T18:42:49.737Z,50.18
2023-05-14T18:45:18.143Z,50.12
2023-05-14T18:47:46.565Z,50.02
2023-05-14T18:50:14.634Z,49.65
2023-05-14T18:52:42.741Z,49.75
2023-05-14T18:55:11.126Z,49.67
2023-05-14T18:57:39.201Z,49.71
2023-05-14T19:00:08.027Z,49.60
2023-05-14T19:02:36.132Z,49.48
2023-05-14T19:05:05.359Z,49.47
2023-05-14T19:07:33.607Z,49.43
2023-05-14T19:10:01.712Z,49.54
2023-05-14T19:12:29.809Z,49.54
2023-05-14T19:15:01.036Z,49.66
2023-05-14T19:17:29.458Z,49.62
2023-05-14T19:19:57.353Z,49.74
2023-05-14T19:22:25.272Z,49.84
2023-05-14T19:24:53.362Z,49.73
2023-05-14T19:27:21.512Z,49.68
2023-05-14T19:29:49.856Z,49.57
2023-05-14T19:32:17.898Z,49.76
2023-05-14T19:34:45.899Z,49.80
2023-05-14T19:37:14.115Z,49.91
2023-05-14T19:39:42.182Z,49.87
2023-05-14T19:42:10.183Z,49.99
2023-05-14T19:44:38.176Z,49.90
2023-05-14T19:47:06.327Z,49.84
2023-05-14T19:49:35.327Z,49.92
2023-05-14T19:52:03.971Z,50.09
2023-05-14T19:54:32.118Z,50.12
2023-05-14T19:57:00.507Z,50.21
2023-05-14T19:59:29.763Z,50.10
2023-05-14T20:01:57.837Z,50.17
2023-05-14T20:04:26.146Z,50.18
2023-05-14T20:06:54.246Z,50.35
2023-05-14T20:09:22.908Z,50.22
2023-05-14T20:11:51.183Z,50.24
2023-05-14T20:14:19.661Z,50.33
2023-05-14T20:16:49.144Z,50.21
2023-05-14T20:19:17.321Z,50.16
2023-05-14T20:21:45.413Z,50.24
2023-05-14T20:24:13.617Z,50.21
2023-05-14T20:26:41.660Z,50.21
2023-05-14T20:29:11.418Z,50.10
2023-05-14T20:31:39.652Z,50.12
2023-05-14T20:34:07.591Z,50.33
2023-05-14T20:36:36.376Z,50.36
2023-05-14T20:39:06.250Z,50.53
2023-05-14T20:41:35.052Z,50.42
2023-05-14T20:44:03.545Z,50.58
2023-05-14T20:46:31.790Z,50.55
2023-05-14T20:49:02.203Z,50.47
2023-05-14T20:51:31.053Z,50.47
2023-05-14T20:53:59.151Z,50.44
2023-05-14T20:56:30.494Z,50.34
2023-05-14T20:59:07.699Z,50.47
2023-05-14T21:01:35.919Z,50.48
2023-05-14T21:04:04.591Z,50.56
2023-05-14T21:06:33.352Z,50.59
2023-05-14T21:09:01.544Z,50.61
2023-05-14T21:11:38.817Z,50.71
2023-05-14T21:14:07.026Z,50.70
2023-05-14T21:16:42.684Z,50.57
2023-05-14T21:19:13.275Z,50.47
2023-05-14T21:21:43.066Z,50.31
2023-05-14T21:24:11.552Z,50.42
2023-05-14T21:26:40.553Z,50.46
2023-05-14T21:29:08.616Z,50.61
2023-05-14T21:31:36.760Z,50.72
2023-05-14T21:34:06.102Z,50.77
2023-05-14T21:36:34.243Z,50.91
2023-05-14T21:39:02.222Z,51.06
2023-05-14T21:41:32.657Z,51.04
2023-05-14T21:44:03.706Z,51.16
2023-05-14T21:46:32.297Z,51.42
2023-05-14T21:49:00.358Z,51.57
2023-05-14T21:51:28.538Z,51.71
2023-05-14T21:53:56.680Z,51.77
2023-05-14T21:56:25.395Z,51.80
2023-05-14T21:58:56.169Z,51.95
2023-05-14T22:01:24.449Z,52.06
2023-05-14T22:03:56.430Z,52.03
2023-05-14T22:06:32.535Z,52.12
2023-05-14T22:09:00.709Z,52.04
2023-05-14T22:11:28.983Z,52.31
2023-05-14T22:13:56.973Z,52.22
2023-05-14T22:16:26.878Z,52.06
2023-05-14T22:18:55.096Z,52.17
2023-05-14T22:21:23.321Z,52.16
2023-05-14T22:23:54.383Z,52.16
2023-05-14T22:26:22.432Z,52.06
2023-05-14T22:28:50.555Z,52.22
2023-05-14T22:31:18.466Z,52.31
2023-05-14T22:33:46.549Z,52.15
2023-05-14T22:36:14.530Z,52.04
2023-05-14T22:38:44.040Z,52.14
2023-05-14T22:41:12.907Z,52.13
2023-05-14T22:43:40.942Z,52.13
2023-05-14T22:46:08.958Z,52.07
2023-05-14T22:48:37.030Z,52.00
2023-05-14T22:51:05.304Z,52.04
2023-05-14T22:53:33.258Z,51.92
2023-05-14T22:56:01.242Z,51.93
2023-05-14T22:58:29.213Z,51.92
2023-05-14T23:00:57.557Z,51.75
2023-05-14T23:03:25.786Z,51.97
2023-05-14T23:05:56.922Z,52.00
2023-05-14T23:08:24.880Z,51.91
2023-05-14T23:10:52.901Z,51.95
2023-05-14T23:13:21.228Z,51.93
2023-05-14T23:15:49.292Z,51.84
2023-05-14T23:18:17.536Z,51.91
2023-05-14T23:20:45.750Z,52.06
2023-05-14T23:23:14.035Z,52.11
2023-05-14T23:25:42.196Z,52.01
2023-05-14T23:28:10.430Z,52.06
2023-05-14T23:30:38.404Z,52.05
2023-05-14T23:33:07.080Z,51.96
2023-05-14T23:35:37.858Z,51.94
2023-05-14T23:38:06.658Z,52.02
2023-05-14T23:40:34.832Z,52.02
2023-05-14T23:43:02.773Z,52.06
2023-05-14T23:45:31.241Z,52.07
2023-05-14T23:48:01.133Z,51.86
2023-05-14T23:50:29.316Z,52.21
2023-05-14T23:52:57.359Z,52.38
2023-05-14T23:55:26.138Z,52.19
2023-05-14T23:57:54.506Z,52.74
